Myrtle, Missouri
Current Conditions -  °F | °C
As of 1:15 PM on Monday 20 Oct 2014 (Local Time) from KARG Reporting Station
Broken Clouds Broken Clouds  
Wind Chill: 72°   Ceiling: 5500
Heat Index: 72°   Visibility: 10mi
Dew Point: 52°   Wind: 12mph
Humidity: 50%   Direction: 220°SW
Pressure: 30.02"   Gusts: NA
Location:  36.51°N, 91.27°W
Report Text: KARG 201815Z AUTO 22010KT 10SM BKN055 22/11 A3002 RMK AO1
Loading
Personal Weather Stations






























Interactive Weather Map New forecast layout! Learn more

10-Day Weather Forecast

Advertisements
Track Severe Weather on mobile